Observations for Trim Market St
| Time | AQI | Temp °C | Hum % | Pres Pa | CO μg/m³ | H₂S μg/m³ | NO μg/m³ | NO₂ μg/m³ | O₃ μg/m³ | SO₂ μg/m³ | PM1 μg/m³ | PM2.5 μg/m³ | PM10 μg/m³ |
|---|---|---|---|---|---|---|---|---|---|---|---|---|---|
| Thursday 9 July 2026 | |||||||||||||
| 05:07 | 1 | 16.6 | 76 | 24,796 | 0.1 | 0 | 0 | 4.58 | 15.13 | 0 | 2.85 | 5.13 | 8.12 |
| 05:06 | 1 | 16.6 | 76 | 25,237 | 0.1 | 0 | 0.19 | 3.68 | 11.51 | 0 | 2.14 | 4.65 | 7.53 |
| 05:05 | 1 | 16.6 | 76 | 25,679 | 0.09 | 0 | 0 | 2.79 | 14.97 | 0 | 2.14 | 4.18 | 6.94 |
| 05:04 | 1 | 16.6 | 76 | 26,122 | 0.09 | 0 | 0 | 6.19 | 13.23 | 0 | 1.43 | 3.71 | 6.94 |
| 05:03 | 1 | 16.6 | 76 | 26,656 | 0.09 | 0 | 0 | 5.41 | 16.02 | 0 | 1.43 | 3.71 | 6.35 |
| 05:02 | 1 | 16.7 | 76 | 27,173 | 0.08 | 0 | 0.01 | 3.38 | 12.29 | 0 | 1.43 | 4.19 | 6.94 |
| 05:01 | 1 | 16.6 | 76 | 27,632 | 0.1 | 0 | 0 | 6.41 | 14.79 | 0 | 2.85 | 4.67 | 8.12 |
| 05:00 | 1 | 16.7 | 76 | 28,222 | 0.07 | 0 | 0 | 5.49 | 12.18 | 0 | 2.14 | 3.72 | 6.35 |
| 04:59 | 1 | 16.7 | 76 | 28,736 | 0.09 | 0 | 0 | 4.5 | 13.31 | 0 | 2.14 | 4.68 | 8.12 |
| 04:58 | 1 | 16.7 | 76 | 29,080 | 0.08 | 0 | 0.83 | 2.31 | 17.11 | 0 | 2.14 | 3.73 | 8.12 |
| 04:56 | 1 | 16.7 | 76 | 29,419 | 0.1 | 0 | 0 | 6.02 | 15.94 | 0 | 2.14 | 4.21 | 6.94 |
| 04:49 | 1 | 16.7 | 76 | 32,674 | 0.09 | 0 | 0.94 | 4.75 | 12.46 | 0 | 2.85 | 4.22 | 7.53 |
| 04:48 | 1 | 16.7 | 76 | 33,050 | 0.09 | 0 | 0 | 3.25 | 13.6 | 0 | 1.43 | 3.26 | 5.75 |
| 04:43 | 1 | 16.7 | 76 | 35,007 | 0.09 | 0 | 0 | 1.37 | 21.4 | 0 | 2.85 | 4.23 | 6.94 |
| 04:41 | 1 | 16.7 | 75 | 35,289 | 0.08 | 0 | 0 | 3.78 | 12.86 | 0 | 2.14 | 4.23 | 6.94 |
| 04:40 | 1 | 16.7 | 75 | 35,754 | 0.08 | 0 | 0 | 6.38 | 14.86 | 0 | 2.85 | 5.67 | 8.72 |
| 04:39 | 1 | 16.7 | 75 | 36,222 | 0.09 | 0 | 0 | 6.29 | 17.47 | 0 | 1.43 | 3.28 | 5.74 |
| 04:38 | 1 | 16.7 | 75 | 36,649 | 0.08 | 0 | 0.01 | 4.69 | 11.46 | 0 | 0.71 | 2.8 | 5.15 |
| 04:36 | 1 | 16.7 | 75 | 37,245 | 0.07 | 0 | 0 | 4.2 | 11.29 | 0 | 2.14 | 3.29 | 5.74 |
| 04:33 | 1 | 16.7 | 75 | 38,110 | 0.08 | 0 | 0 | 5.42 | 16.77 | 0 | 1.43 | 2.81 | 5.14 |